Time;durP1;ratioP1;P1;durP2;ratioP2;P2;SDS_P1;SDS_P2;PMS_P1;PMS_P2;Temp;Humidity;BMP_temperature;BMP_pressure;BME280_temperature;BME280_humidity;BME280_pressure;Samples;Min_cycle;Max_cycle;Signal;HPM_P1;HPM_P2
2022/09/23 00:00:39;;;;;;;7.25;2.85;;;21.60;58.30;;;;;;4983110;28;86863;-81
2022/09/23 00:03:05;;;;;;;4.68;2.63;;;21.60;58.40;;;;;;4982515;28;86442;-81
2022/09/23 00:05:31;;;;;;;4.60;2.50;;;21.60;59.00;;;;;;4986151;28;86569;-81
2022/09/23 00:07:57;;;;;;;4.93;2.60;;;21.50;58.30;;;;;;4981847;28;86603;-81
2022/09/23 00:10:25;;;;;;;4.63;2.63;;;21.60;59.10;;;;;;4984418;28;87404;-80
2022/09/23 00:12:51;;;;;;;4.32;2.10;;;21.60;58.40;;;;;;4984035;28;85769;-81
2022/09/23 00:15:16;;;;;;;4.70;2.40;;;21.60;58.40;;;;;;4980713;28;85929;-81
2022/09/23 00:17:42;;;;;;;5.22;2.53;;;21.60;58.40;;;;;;4982575;28;85694;-81
2022/09/23 00:20:09;;;;;;;4.82;2.85;;;21.60;58.40;;;;;;4967022;28;91054;-81
2022/09/23 00:22:35;;;;;;;5.82;2.50;;;21.50;58.30;;;;;;4964583;28;88555;-81
2022/09/23 00:25:06;;;;;;;5.97;2.65;;;21.50;58.30;;;;;;4984159;28;85892;-80
2022/09/23 00:27:35;;;;;;;6.57;2.90;;;21.50;58.30;;;;;;4980502;28;86793;-81
2022/09/23 00:30:01;;;;;;;3.40;2.33;;;21.50;58.40;;;;;;4982953;28;86946;-81
2022/09/23 00:32:27;;;;;;;4.57;2.47;;;21.50;58.40;;;;;;4981514;28;86502;-81
2022/09/23 00:34:53;;;;;;;4.65;2.35;;;21.50;58.30;;;;;;4980438;28;86040;-80
2022/09/23 00:37:19;;;;;;;5.32;2.67;;;21.50;58.30;;;;;;4984246;28;85930;-81
2022/09/23 00:39:45;;;;;;;4.05;2.58;;;21.50;58.30;;;;;;4983482;28;87679;-81
2022/09/23 00:42:17;;;;;;;4.68;2.53;;;21.50;58.20;;;;;;4982816;28;86380;-81
2022/09/23 00:44:43;;;;;;;3.67;2.45;;;21.50;58.50;;;;;;4984641;28;85912;-81
2022/09/23 00:47:28;;;;;;;3.60;2.30;;;21.50;58.40;;;;;;4981018;28;86223;-81
2022/09/23 00:50:17;;;;;;;5.13;2.22;;;21.40;58.40;;;;;;4901819;28;86713;-80
2022/09/23 00:52:43;;;;;;;5.27;2.23;;;21.40;58.40;;;;;;4904285;28;87151;-81
2022/09/23 00:55:14;;;;;;;3.85;2.42;;;21.40;58.40;;;;;;4902265;28;86508;-81
2022/09/23 00:57:41;;;;;;;4.03;2.10;;;21.40;58.30;;;;;;4903842;28;86171;-81
2022/09/23 01:00:08;;;;;;;3.40;2.30;;;21.40;58.40;;;;;;4903220;28;87066;-81
2022/09/23 01:02:36;;;;;;;4.07;2.35;;;21.40;58.50;;;;;;4902290;28;86807;-81
2022/09/23 01:05:04;;;;;;;5.25;2.88;;;21.40;58.40;;;;;;4900778;28;86344;-81
2022/09/23 01:07:30;;;;;;;5.10;2.50;;;21.40;58.40;;;;;;4901677;28;85923;-81
2022/09/23 01:09:58;;;;;;;5.65;2.40;;;21.40;58.40;;;;;;4904399;28;85890;-81
2022/09/23 01:13:01;;;;;;;4.32;2.58;;;21.40;58.30;;;;;;4902880;28;86546;-81
2022/09/23 01:15:52;;;;;;;4.32;2.42;;;21.40;58.40;;;;;;4910774;28;86185;-81
2022/09/23 01:18:17;;;;;;;5.38;2.38;;;21.40;58.30;;;;;;4911306;28;86162;-81
2022/09/23 01:21:20;;;;;;;3.60;2.25;;;21.40;58.40;;;;;;4912604;28;86237;-81
2022/09/23 01:24:02;;;;;;;5.47;2.63;;;21.30;58.30;;;;;;4905763;28;86986;-81
2022/09/23 01:26:39;;;;;;;4.65;2.13;;;21.30;58.40;;;;;;4913841;28;85755;-81
2022/09/23 01:29:25;;;;;;;4.07;2.20;;;21.30;58.30;;;;;;4949140;28;85876;-81
2022/09/23 01:32:13;;;;;;;3.35;2.10;;;21.30;58.50;;;;;;4970661;28;86638;-82
2022/09/23 01:34:59;;;;;;;3.88;2.33;;;21.30;58.40;;;;;;4953161;28;89805;-81
2022/09/23 01:37:35;;;;;;;5.60;2.25;;;21.30;58.40;;;;;;4970836;28;86011;-81
2022/09/23 01:40:13;;;;;;;3.83;2.03;;;21.30;58.40;;;;;;4971445;28;86184;-81
2022/09/23 01:42:45;;;;;;;2.50;2.10;;;21.30;58.60;;;;;;4971348;28;87088;-80
2022/09/23 01:45:21;;;;;;;3.55;2.17;;;21.30;58.50;;;;;;4954536;28;89983;-81
2022/09/23 01:48:09;;;;;;;4.95;2.22;;;21.30;58.40;;;;;;4970204;28;86548;-80
2022/09/23 01:50:55;;;;;;;4.22;2.38;;;21.20;58.50;;;;;;4991255;28;85800;-81
2022/09/23 01:53:37;;;;;;;3.80;2.17;;;21.20;58.40;;;;;;4992785;28;86653;-81
2022/09/23 01:56:30;;;;;;;4.45;2.28;;;21.20;58.50;;;;;;4991979;28;85899;-80
2022/09/23 01:59:17;;;;;;;3.95;2.30;;;21.20;58.70;;;;;;4992341;28;86200;-80
2022/09/23 02:02:01;;;;;;;3.25;1.90;;;21.20;58.60;;;;;;4996410;28;86443;-81
2022/09/23 02:04:45;;;;;;;4.45;2.33;;;21.20;58.40;;;;;;4995760;28;86494;-80
2022/09/23 02:07:19;;;;;;;3.50;2.00;;;21.20;58.60;;;;;;4996345;28;87448;-81
2022/09/23 02:09:52;;;;;;;2.88;1.70;;;21.20;58.60;;;;;;4975959;28;87257;-80
2022/09/23 02:12:21;;;;;;;2.40;1.83;;;21.20;58.60;;;;;;4991804;28;86289;-81
2022/09/23 02:15:01;;;;;;;;;;;21.20;58.70;;;;;;4964293;28;87487;-81
2022/09/23 02:17:38;;;;;;;2.88;2.05;;;21.20;58.60;;;;;;4961308;28;87720;-81
2022/09/23 02:20:05;;;;;;;4.20;2.33;;;21.20;58.60;;;;;;4961155;28;85776;-80
2022/09/23 02:22:41;;;;;;;3.92;2.38;;;21.10;58.60;;;;;;4957505;28;86433;-80
2022/09/23 02:25:08;;;;;;;2.70;1.95;;;21.10;58.50;;;;;;4964918;28;88641;-80
2022/09/23 02:27:56;;;;;;;2.95;2.20;;;21.20;58.50;;;;;;4956306;28;86863;-80
2022/09/23 02:30:28;;;;;;;4.13;2.10;;;21.20;58.50;;;;;;4964126;28;86487;-82
2022/09/23 02:33:23;;;;;;;4.07;2.28;;;21.10;58.40;;;;;;4965376;28;86090;-80
2022/09/23 02:36:24;;;;;;;3.33;2.17;;;21.20;58.60;;;;;;4896970;28;87429;-80
2022/09/23 02:38:56;;;;;;;2.80;2.08;;;21.10;58.50;;;;;;4857487;28;86383;-80
2022/09/23 02:41:58;;;;;;;3.75;2.00;;;21.10;58.60;;;;;;4865258;28;86469;-81
2022/09/23 02:44:26;;;;;;;3.55;2.25;;;21.10;58.70;;;;;;4864640;28;86656;-81
2022/09/23 02:46:52;;;;;;;3.20;1.77;;;21.10;58.60;;;;;;4865166;28;86090;-82
2022/09/23 02:49:29;;;;;;;4.05;2.22;;;21.10;58.50;;;;;;4865107;28;86062;-80
2022/09/23 02:51:58;;;;;;;3.08;2.20;;;21.10;58.40;;;;;;4864610;28;85938;-81
2022/09/23 02:54:27;;;;;;;2.17;1.85;;;21.10;58.50;;;;;;4864565;28;85934;-81
2022/09/23 02:56:53;;;;;;;3.47;2.30;;;21.10;58.60;;;;;;4865769;28;86222;-81
2022/09/23 02:59:21;;;;;;;3.00;2.10;;;21.10;58.40;;;;;;4863929;28;86809;-81
2022/09/23 03:02:04;;;;;;;3.17;2.28;;;21.10;58.40;;;;;;4848707;28;88213;-81
2022/09/23 03:04:51;;;;;;;3.38;2.38;;;21.10;58.50;;;;;;4862223;28;85807;-80
2022/09/23 03:07:37;;;;;;;3.20;2.15;;;21.10;58.40;;;;;;4863230;28;87376;-80
2022/09/23 03:10:14;;;;;;;2.47;1.85;;;21.10;58.40;;;;;;4864547;28;91193;-80
2022/09/23 03:12:56;;;;;;;3.58;2.00;;;21.10;58.40;;;;;;4872271;28;85776;-80
2022/09/23 03:15:30;;;;;;;2.97;1.80;;;21.00;58.50;;;;;;4905001;28;86227;-80
2022/09/23 03:18:08;;;;;;;3.53;2.13;;;21.00;58.40;;;;;;4974773;28;87827;-79
2022/09/23 03:20:46;;;;;;;3.72;2.10;;;21.00;58.60;;;;;;4974978;28;86565;-80
2022/09/23 03:23:14;;;;;;;3.33;2.00;;;21.00;58.40;;;;;;4974874;28;87025;-81
2022/09/23 03:25:44;;;;;;;2.83;2.17;;;21.00;58.50;;;;;;4974499;28;86055;-80
2022/09/23 03:28:11;;;;;;;3.83;2.10;;;21.00;58.40;;;;;;4988985;28;89456;-81
2022/09/23 03:30:38;;;;;;;2.65;2.10;;;21.00;58.30;;;;;;4974770;28;89141;-81
2022/09/23 03:33:07;;;;;;;2.67;1.90;;;21.00;58.40;;;;;;4973558;28;85690;-80
2022/09/23 03:36:48;;;;;;;2.15;1.80;;;21.00;58.50;;;;;;4974458;28;86473;-80
2022/09/23 03:38:25;;;;;;;3.10;2.00;;;21.00;58.50;;;;;;4974675;28;88110;-80
2022/09/23 03:40:54;;;;;;;3.13;2.10;;;21.00;58.40;;;;;;4975470;28;86487;-79
2022/09/23 03:43:20;;;;;;;2.90;1.85;;;21.00;58.50;;;;;;4974535;28;86422;-80
2022/09/23 03:45:46;;;;;;;2.75;2.13;;;21.00;58.40;;;;;;4974582;28;86178;-80
2022/09/23 03:48:13;;;;;;;3.28;2.10;;;21.00;58.40;;;;;;4974257;28;85994;-80
2022/09/23 03:50:39;;;;;;;4.05;2.00;;;21.00;58.30;;;;;;4974211;28;87502;-80
2022/09/23 03:53:05;;;;;;;2.40;1.80;;;21.00;58.40;;;;;;4974122;28;86099;-80
2022/09/23 03:55:31;;;;;;;2.05;1.80;;;21.00;58.40;;;;;;4974283;28;85739;-79
2022/09/23 03:57:59;;;;;;;3.90;1.90;;;20.90;58.20;;;;;;4974346;28;85948;-79
2022/09/23 04:00:24;;;;;;;3.38;1.80;;;21.00;58.30;;;;;;4974380;28;86192;-80
2022/09/23 04:02:50;;;;;;;2.00;1.80;;;21.00;58.40;;;;;;4974137;28;86189;-80
2022/09/23 04:05:16;;;;;;;3.05;2.03;;;21.00;58.50;;;;;;4974130;28;85744;-80
2022/09/23 04:07:42;;;;;;;2.95;1.98;;;20.90;58.40;;;;;;4955406;28;89469;-80
2022/09/23 04:10:08;;;;;;;2.75;1.90;;;20.90;58.40;;;;;;4974439;28;86775;-80
2022/09/23 04:12:34;;;;;;;2.10;1.90;;;20.90;58.40;;;;;;4974189;28;85652;-80
2022/09/23 04:15:00;;;;;;;3.30;2.10;;;20.90;58.30;;;;;;4981708;28;86368;-80
2022/09/23 04:17:26;;;;;;;3.60;2.05;;;20.90;58.40;;;;;;4980902;28;86967;-80
2022/09/23 04:19:51;;;;;;;2.70;1.77;;;20.90;58.20;;;;;;4980382;28;86506;-80
2022/09/23 04:22:17;;;;;;;2.17;1.85;;;20.90;58.20;;;;;;4982991;28;86146;-80
2022/09/23 04:24:42;;;;;;;3.70;2.10;;;20.90;58.30;;;;;;4964342;28;85976;-80
2022/09/23 04:27:08;;;;;;;2.50;2.05;;;20.90;58.30;;;;;;4963363;28;87873;-80
2022/09/23 04:29:34;;;;;;;4.22;2.15;;;20.90;58.30;;;;;;4972662;28;87044;-79
2022/09/23 04:31:59;;;;;;;2.45;1.67;;;20.90;58.40;;;;;;4976398;28;86167;-80
2022/09/23 04:34:25;;;;;;;2.63;1.88;;;20.90;58.40;;;;;;4961192;28;86255;-80
2022/09/23 04:36:50;;;;;;;2.35;1.60;;;20.90;58.40;;;;;;4960641;28;86018;-80
2022/09/23 04:39:17;;;;;;;1.50;1.38;;;20.90;58.40;;;;;;4960916;28;86234;-79
2022/09/23 04:41:43;;;;;;;2.58;1.70;;;20.90;58.40;;;;;;4961176;28;85771;-80
2022/09/23 04:44:11;;;;;;;2.67;1.70;;;20.90;58.30;;;;;;4960751;28;86164;-80
2022/09/23 04:46:37;;;;;;;2.63;1.60;;;20.90;58.20;;;;;;4961527;28;87835;-79
2022/09/23 04:49:04;;;;;;;2.58;1.85;;;20.90;58.30;;;;;;4961763;28;86449;-79
2022/09/23 04:51:30;;;;;;;2.65;1.80;;;20.90;58.30;;;;;;4961949;28;86039;-80
2022/09/23 04:53:55;;;;;;;2.63;1.80;;;20.90;58.30;;;;;;4943158;28;86529;-80
2022/09/23 04:56:24;;;;;;;2.60;1.83;;;20.90;58.20;;;;;;4958875;28;87177;-80
2022/09/23 04:58:50;;;;;;;2.40;1.87;;;20.90;58.20;;;;;;4960881;28;85730;-80
2022/09/23 05:01:17;;;;;;;2.72;1.90;;;20.90;58.20;;;;;;4961062;28;85949;-81
2022/09/23 05:03:43;;;;;;;2.38;1.80;;;20.90;58.20;;;;;;4982082;28;86351;-81
2022/09/23 05:06:12;;;;;;;2.45;1.70;;;20.90;58.20;;;;;;4983417;28;86644;-80
2022/09/23 05:08:39;;;;;;;3.60;2.08;;;20.80;58.10;;;;;;4980738;28;86972;-80
2022/09/23 05:11:07;;;;;;;2.35;1.70;;;20.90;58.20;;;;;;4962906;28;85904;-79
2022/09/23 05:13:34;;;;;;;2.63;1.70;;;20.90;58.00;;;;;;4983009;28;86582;-80
2022/09/23 05:16:06;;;;;;;3.28;2.05;;;20.90;58.00;;;;;;4983047;28;86422;-80
2022/09/23 05:18:33;;;;;;;2.55;1.98;;;20.90;58.10;;;;;;4979606;28;86498;-80
2022/09/23 05:20:59;;;;;;;2.25;1.83;;;20.90;58.00;;;;;;4961415;28;85814;-80
2022/09/23 05:23:26;;;;;;;3.53;2.00;;;20.80;58.10;;;;;;4981323;28;86058;-80
2022/09/23 05:25:57;;;;;;;2.50;1.70;;;20.80;58.00;;;;;;4978651;28;87304;-80
2022/09/23 05:28:25;;;;;;;2.40;1.67;;;20.80;58.10;;;;;;4981157;28;86428;-80
2022/09/23 05:30:50;;;;;;;2.13;1.63;;;20.80;58.00;;;;;;4980741;28;86079;-81
2022/09/23 05:33:16;;;;;;;2.53;1.88;;;20.80;58.10;;;;;;4981808;28;85715;-80
2022/09/23 05:35:47;;;;;;;2.35;1.80;;;20.80;58.00;;;;;;4984404;28;86208;-80
2022/09/23 05:38:15;;;;;;;2.35;1.80;;;20.90;58.00;;;;;;4968623;28;90222;-80
2022/09/23 05:40:41;;;;;;;3.75;1.80;;;20.90;58.00;;;;;;4981970;28;86320;-80
2022/09/23 05:43:06;;;;;;;2.17;1.70;;;20.80;58.00;;;;;;4984957;28;86423;-80
2022/09/23 05:45:32;;;;;;;2.60;1.80;;;20.80;58.00;;;;;;4983848;28;86915;-80
2022/09/23 05:48:00;;;;;;;2.90;1.60;;;20.80;58.00;;;;;;4982868;28;86703;-79
2022/09/23 05:50:25;;;;;;;2.25;1.75;;;20.80;58.00;;;;;;4984408;28;86454;-80
2022/09/23 05:52:51;;;;;;;3.50;1.60;;;20.80;58.20;;;;;;4986674;28;86338;-80
2022/09/23 05:55:16;;;;;;;2.67;1.90;;;20.80;58.10;;;;;;4985218;28;85688;-80
2022/09/23 05:57:42;;;;;;;2.17;1.67;;;20.80;57.90;;;;;;4964835;28;91781;-80
2022/09/23 06:00:08;;;;;;;2.70;1.73;;;20.80;58.10;;;;;;4978666;28;86208;-80
2022/09/23 06:02:34;;;;;;;2.55;1.80;;;20.80;58.00;;;;;;4936821;28;86203;-80
2022/09/23 06:04:59;;;;;;;2.25;1.90;;;20.80;58.10;;;;;;4963179;28;86371;-79
2022/09/23 06:07:25;;;;;;;3.30;2.08;;;20.80;58.10;;;;;;4964538;28;86305;-80
2022/09/23 06:09:52;;;;;;;2.45;1.67;;;20.80;58.00;;;;;;4965072;28;85871;-80
2022/09/23 06:12:19;;;;;;;3.42;1.73;;;20.80;58.00;;;;;;4964611;28;86540;-80
2022/09/23 06:14:45;;;;;;;1.67;1.58;;;20.90;58.00;;;;;;4993317;28;87468;-80
2022/09/23 06:17:10;;;;;;;2.90;2.00;;;20.90;57.80;;;;;;4995543;28;86446;-81
2022/09/23 06:19:36;;;;;;;3.95;2.00;;;21.00;57.50;;;;;;4997386;28;86539;-80
2022/09/23 06:22:02;;;;;;;3.47;1.85;;;21.00;57.70;;;;;;4997406;28;85814;-81
2022/09/23 06:24:27;;;;;;;3.88;2.05;;;21.00;57.90;;;;;;4999093;28;86526;-81
2022/09/23 06:26:54;;;;;;;3.00;2.20;;;21.00;58.30;;;;;;4998802;28;86803;-81
2022/09/23 06:29:19;;;;;;;3.50;2.42;;;20.90;58.50;;;;;;4998127;28;85964;-81
2022/09/23 06:31:47;;;;;;;3.28;2.42;;;20.90;58.60;;;;;;4999420;28;86213;-81
2022/09/23 06:34:13;;;;;;;4.93;2.72;;;21.00;58.50;;;;;;5000968;28;87270;-80
2022/09/23 06:36:42;;;;;;;3.47;2.22;;;21.00;58.40;;;;;;4998688;28;87568;-81
2022/09/23 06:39:07;;;;;;;9.63;2.78;;;21.10;58.40;;;;;;5000266;28;86005;-80
2022/09/23 06:41:33;;;;;;;6.15;3.50;;;21.10;58.30;;;;;;4996754;28;86439;-80
2022/09/23 06:43:59;;;;;;;5.03;2.47;;;21.10;58.40;;;;;;4998487;28;87109;-80
2022/09/23 06:46:24;;;;;;;6.60;3.17;;;21.10;58.40;;;;;;4998367;28;87934;-80
2022/09/23 06:48:50;;;;;;;10.70;2.97;;;21.10;58.40;;;;;;5000721;28;85719;-80
2022/09/23 06:51:18;;;;;;;6.22;3.40;;;21.10;58.60;;;;;;4999793;28;86629;-80
2022/09/23 06:53:47;;;;;;;6.90;3.17;;;21.00;58.60;;;;;;5002852;28;87398;-82
2022/09/23 06:56:14;;;;;;;7.53;3.00;;;21.10;58.90;;;;;;5002471;28;87485;-80
2022/09/23 06:58:39;;;;;;;4.55;2.58;;;21.10;59.00;;;;;;5000118;28;85794;-81
2022/09/23 07:01:18;;;;;;;5.00;2.42;;;21.20;58.90;;;;;;4999893;28;85778;-81
2022/09/23 07:03:46;;;;;;;4.13;2.47;;;21.10;59.50;;;;;;4999327;28;92069;-81
2022/09/23 07:06:12;;;;;;;7.30;3.58;;;21.20;59.10;;;;;;4997528;28;86639;-80
2022/09/23 07:08:38;;;;;;;5.55;3.33;;;21.20;58.50;;;;;;4999214;28;85996;-80
2022/09/23 07:11:05;;;;;;;5.85;2.80;;;21.20;58.20;;;;;;4996058;28;86719;-80
2022/09/23 07:13:32;;;;;;;6.47;2.83;;;21.30;58.70;;;;;;4979823;28;90500;-83
2022/09/23 07:16:00;;;;;;;51.10;9.80;;;21.20;58.60;;;;;;5001004;28;86351;-82
2022/09/23 07:18:28;;;;;;;13.85;4.22;;;21.30;57.80;;;;;;4980663;28;86024;-82
2022/09/23 07:20:56;;;;;;;26.00;6.75;;;21.30;58.30;;;;;;4969287;28;86674;-83
2022/09/23 07:23:22;;;;;;;20.80;6.83;;;21.30;58.30;;;;;;4988912;28;87503;-83
2022/09/23 07:25:50;;;;;;;32.17;7.43;;;21.30;58.30;;;;;;4971299;28;88279;-83
2022/09/23 07:28:17;;;;;;;38.60;9.18;;;21.30;58.30;;;;;;4991252;28;85659;-82
2022/09/23 07:30:43;;;;;;;38.85;9.60;;;21.30;59.10;;;;;;4970846;28;88176;-83
2022/09/23 07:33:09;;;;;;;35.67;10.32;;;21.30;58.50;;;;;;4971331;28;86799;-83
2022/09/23 07:35:42;;;;;;;36.92;11.05;;;21.30;58.70;;;;;;4969156;28;85785;-83
2022/09/23 07:38:09;;;;;;;35.30;10.35;;;21.30;58.50;;;;;;4954378;28;86691;-83
2022/09/23 07:40:35;;;;;;;44.63;11.68;;;21.20;58.40;;;;;;4977580;28;86298;-83
2022/09/23 07:43:04;;;;;;;38.83;11.35;;;21.30;59.10;;;;;;4978938;28;87004;-82
2022/09/23 07:45:32;;;;;;;44.72;12.27;;;21.30;58.40;;;;;;4935683;28;87647;-82
2022/09/23 07:47:57;;;;;;;44.53;12.05;;;21.30;58.30;;;;;;4936280;28;86417;-82
2022/09/23 07:50:23;;;;;;;43.85;11.52;;;21.30;59.00;;;;;;4935926;28;85947;-83
2022/09/23 07:52:51;;;;;;;40.10;10.38;;;21.40;58.30;;;;;;4932555;28;86124;-81
2022/09/23 07:55:21;;;;;;;39.37;11.03;;;21.40;58.40;;;;;;4919054;28;86553;-83
2022/09/23 07:57:47;;;;;;;40.25;10.95;;;21.40;58.10;;;;;;4916241;28;86579;-83
2022/09/23 08:00:13;;;;;;;39.05;11.15;;;21.40;58.00;;;;;;4916365;28;86246;-82
2022/09/23 08:02:40;;;;;;;41.08;10.95;;;21.40;58.10;;;;;;4914943;28;87760;-82
2022/09/23 08:05:06;;;;;;;41.80;11.68;;;21.40;57.80;;;;;;4915406;28;86579;-84
2022/09/23 08:07:33;;;;;;;35.88;10.88;;;21.40;58.10;;;;;;4916471;28;86317;-82
2022/09/23 08:09:59;;;;;;;34.50;10.82;;;21.40;58.10;;;;;;4914643;28;85677;-82
2022/09/23 08:12:26;;;;;;;38.20;11.52;;;21.40;58.20;;;;;;4936131;28;87453;-80
2022/09/23 08:14:52;;;;;;;34.88;11.60;;;21.40;58.00;;;;;;4943254;28;86405;-82
2022/09/23 08:17:20;;;;;;;39.83;11.20;;;21.40;58.30;;;;;;4968332;28;86387;-82
2022/09/23 08:19:45;;;;;;;35.65;10.00;;;21.40;58.30;;;;;;4967811;28;86286;-81
2022/09/23 08:22:11;;;;;;;37.25;10.80;;;21.40;58.30;;;;;;4976163;28;88704;-81
2022/09/23 08:24:37;;;;;;;40.78;10.73;;;21.30;58.20;;;;;;4976423;28;85792;-81
2022/09/23 08:27:02;;;;;;;40.00;11.88;;;21.30;58.50;;;;;;4959804;28;86139;-81
2022/09/23 08:29:28;;;;;;;37.47;10.98;;;21.30;58.50;;;;;;4978332;28;86273;-82
2022/09/23 08:31:54;;;;;;;36.05;11.07;;;21.30;58.30;;;;;;4977224;28;87884;-82
2022/09/23 08:34:21;;;;;;;36.45;10.32;;;21.30;58.30;;;;;;4977799;28;86010;-82
2022/09/23 08:36:47;;;;;;;35.40;10.30;;;21.30;58.40;;;;;;4976944;28;85955;-82
2022/09/23 08:39:17;;;;;;;29.00;10.02;;;21.30;58.40;;;;;;4977229;28;86129;-82
2022/09/23 08:41:52;;;;;;;37.53;10.25;;;21.30;58.40;;;;;;4958049;28;88822;-81
2022/09/23 08:44:26;;;;;;;33.83;10.38;;;21.30;58.40;;;;;;4975098;28;87477;-82
2022/09/23 08:47:11;;;;;;;31.02;10.40;;;21.30;58.30;;;;;;4974481;28;86225;-81
2022/09/23 08:50:22;;;;;;;36.75;9.98;;;21.30;58.30;;;;;;4976350;28;85884;-82
2022/09/23 08:53:04;;;;;;;36.50;10.23;;;21.30;58.20;;;;;;4976814;28;86548;-82
2022/09/23 08:55:47;;;;;;;32.22;9.32;;;21.30;58.10;;;;;;4977472;28;86869;-82
2022/09/23 08:58:36;;;;;;;40.90;10.70;;;21.40;58.30;;;;;;4978388;28;86300;-82
2022/09/23 09:01:27;;;;;;;27.80;9.88;;;21.30;58.10;;;;;;4958444;28;86327;-81
2022/09/23 09:03:56;;;;;;;33.40;10.95;;;21.30;58.30;;;;;;4978549;28;91920;-82
2022/09/23 09:06:43;;;;;;;31.00;9.60;;;21.30;58.30;;;;;;4969503;28;86654;-82
2022/09/23 09:09:23;;;;;;;35.33;9.85;;;21.30;58.10;;;;;;4974800;28;85988;-81
2022/09/23 09:11:53;;;;;;;35.35;10.95;;;21.30;58.30;;;;;;4978186;28;86507;-82
2022/09/23 09:14:22;;;;;;;33.60;10.10;;;21.20;58.20;;;;;;4968887;28;87280;-82
2022/09/23 09:16:58;;;;;;;30.42;9.43;;;21.30;58.10;;;;;;4967333;28;88785;-82
2022/09/23 09:19:54;;;;;;;34.95;9.98;;;21.30;58.20;;;;;;4967511;28;85662;-82
2022/09/23 09:22:36;;;;;;;28.23;9.63;;;21.30;58.10;;;;;;4965491;28;85897;-81
2022/09/23 09:25:25;;;;;;;28.10;9.73;;;21.20;58.00;;;;;;4967986;28;87494;-82
2022/09/23 09:27:53;;;;;;;34.38;9.32;;;21.30;58.10;;;;;;4897725;28;91266;-82
2022/09/23 09:30:21;;;;;;;33.45;8.73;;;21.20;58.20;;;;;;4890269;28;86346;-82
2022/09/23 09:33:03;;;;;;;24.90;9.18;;;21.30;58.20;;;;;;4896927;28;87193;-82
2022/09/23 09:35:58;;;;;;;25.55;8.95;;;21.30;58.20;;;;;;4897883;28;87413;-82
2022/09/23 09:38:23;;;;;;;26.75;9.55;;;21.20;58.10;;;;;;4896773;28;86763;-82
2022/09/23 09:40:49;;;;;;;32.97;9.25;;;21.20;58.00;;;;;;4898319;28;86935;-82
2022/09/23 09:43:24;;;;;;;29.33;8.32;;;21.20;58.00;;;;;;4898343;28;86241;-82
2022/09/23 09:45:53;;;;;;;25.60;9.13;;;21.20;58.00;;;;;;4898098;28;91478;-82
2022/09/23 09:48:33;;;;;;;25.35;9.45;;;21.20;58.10;;;;;;4896817;28;87770;-81
2022/09/23 09:51:22;;;;;;;26.55;8.85;;;21.20;58.10;;;;;;4897761;28;86673;-82
2022/09/23 09:53:51;;;;;;;25.58;9.82;;;21.20;58.20;;;;;;4897342;28;86297;-82
2022/09/23 09:56:26;;;;;;;28.25;9.50;;;21.20;58.10;;;;;;4898518;28;87411;-82
2022/09/23 09:58:51;;;;;;;27.42;9.07;;;21.30;57.90;;;;;;4896330;28;86429;-82
2022/09/23 10:01:22;;;;;;;29.67;9.23;;;21.40;57.90;;;;;;4897560;28;86567;-82
2022/09/23 10:03:50;;;;;;;25.63;8.50;;;21.40;57.20;;;;;;4896950;28;86439;-82
2022/09/23 10:06:20;;;;;;;27.38;9.20;;;21.40;57.50;;;;;;4967439;28;87593;-83
2022/09/23 10:09:00;;;;;;;23.02;7.88;;;21.40;57.40;;;;;;4966237;28;86733;-83
2022/09/23 10:11:26;;;;;;;23.17;8.35;;;21.30;57.40;;;;;;4969626;28;85675;-84
2022/09/23 10:14:01;;;;;;;23.08;7.65;;;21.30;57.10;;;;;;4966213;28;85594;-83
2022/09/23 10:16:29;;;;;;;31.13;8.75;;;21.30;57.20;;;;;;4966769;28;88601;-83
2022/09/23 10:18:55;;;;;;;26.88;8.05;;;21.30;57.30;;;;;;4968008;28;88782;-81
2022/09/23 10:21:23;;;;;;;19.52;6.97;;;21.40;57.00;;;;;;4971577;28;86440;-83
2022/09/23 10:23:51;;;;;;;25.15;8.38;;;21.40;56.50;;;;;;4971849;28;86273;-81
2022/09/23 10:26:30;;;;;;;35.45;8.27;;;21.40;56.90;;;;;;4970267;28;88530;-81
2022/09/23 10:28:57;;;;;;;22.50;6.47;;;21.40;56.60;;;;;;4967877;28;86817;-80
2022/09/23 10:31:26;;;;;;;23.25;7.72;;;21.40;56.80;;;;;;4967183;28;86251;-80
2022/09/23 10:34:00;;;;;;;23.88;7.13;;;21.40;57.20;;;;;;4967656;28;86312;-81
2022/09/23 10:36:29;;;;;;;31.60;8.02;;;21.40;57.60;;;;;;4969830;28;87086;-80
2022/09/23 10:47:54;;;;;;;26.63;7.45;;;21.60;57.30;;;;;;4970081;28;86148;-82
2022/09/23 10:50:44;;;;;;;55.10;16.65;;;21.60;57.60;;;;;;4970759;28;86430;-81
2022/09/23 10:53:41;;;;;;;92.63;29.00;;;21.60;57.30;;;;;;4888876;28;85878;-81
2022/09/23 10:56:30;;;;;;;104.47;35.63;;;21.60;57.10;;;;;;4887698;28;86329;-80
2022/09/23 10:59:17;;;;;;;86.05;33.20;;;21.70;57.20;;;;;;4890245;28;87156;-82
2022/09/23 11:02:08;;;;;;;104.38;34.03;;;21.70;57.50;;;;;;4879622;28;88659;-80
2022/09/23 11:04:55;;;;;;;107.95;38.30;;;21.70;59.00;;;;;;4884864;28;85984;-79
2022/09/23 11:07:34;;;;;;;90.10;33.75;;;21.60;59.30;;;;;;4884429;28;85986;-80
2022/09/23 11:10:30;;;;;;;44.78;16.60;;;21.70;59.10;;;;;;4886260;28;87593;-80
2022/09/23 11:13:25;;;;;;;54.28;18.92;;;21.50;53.50;;;;;;4889644;28;92752;-80
2022/09/23 11:15:58;;;;;;;36.00;13.43;;;21.50;55.10;;;;;;4840988;29;88044;-81
2022/09/23 11:18:33;;;;;;;26.75;10.90;;;21.40;53.30;;;;;;4840728;29;86365;-81
2022/09/23 11:21:19;;;;;;;28.45;9.75;;;21.40;51.80;;;;;;4840335;29;86745;-80
2022/09/23 11:24:23;;;;;;;22.02;9.77;;;21.40;51.50;;;;;;4841767;29;86771;-81
2022/09/23 11:27:24;;;;;;;51.22;15.30;;;21.30;51.20;;;;;;4843077;29;86139;-81
2022/09/23 11:30:06;;;;;;;42.00;16.17;;;21.30;55.50;;;;;;4837965;28;86491;-81
2022/09/23 11:32:49;;;;;;;46.15;15.25;;;21.30;55.70;;;;;;4886365;28;87351;-80
2022/09/23 11:35:41;;;;;;;43.25;14.95;;;21.40;55.10;;;;;;4897225;28;87061;-83
2022/09/23 11:38:14;;;;;;;38.15;14.57;;;21.50;55.60;;;;;;4897189;28;86138;-82
2022/09/23 11:40:43;;;;;;;40.38;15.35;;;21.40;55.50;;;;;;4897915;28;86674;-84
2022/09/23 11:43:23;;;;;;;38.42;14.32;;;21.40;55.70;;;;;;4897268;28;87605;-83
2022/09/23 11:45:54;;;;;;;41.47;15.32;;;21.40;55.90;;;;;;4897609;28;90225;-83
2022/09/23 11:48:39;;;;;;;34.58;14.38;;;21.40;56.00;;;;;;4898473;28;86481;-83
2022/09/23 11:51:18;;;;;;;30.00;12.77;;;21.40;56.30;;;;;;4896287;28;86156;-82
2022/09/23 11:53:52;;;;;;;;;;;21.40;56.00;;;;;;4945945;28;87516;-82
2022/09/23 11:56:27;;;;;;;34.05;12.45;;;21.50;55.60;;;;;;4959205;28;86998;-82
2022/09/23 11:58:59;;;;;;;38.60;12.95;;;21.60;55.40;;;;;;4958010;28;86288;-82
2022/09/23 12:01:32;;;;;;;29.45;11.70;;;21.40;55.70;;;;;;4939889;28;87034;-83
2022/09/23 12:04:06;;;;;;;34.92;12.65;;;21.40;55.80;;;;;;4956145;28;89687;-84
2022/09/23 12:06:40;;;;;;;36.50;13.30;;;21.40;56.20;;;;;;4958493;28;86957;-83
2022/09/23 12:09:22;;;;;;;25.88;11.88;;;21.40;56.50;;;;;;4939726;28;87216;-84
2022/09/23 12:12:25;;;;;;;29.33;12.38;;;21.40;56.70;;;;;;4958214;28;85731;-83
2022/09/23 12:14:58;;;;;;;29.40;11.60;;;21.40;56.90;;;;;;4977275;28;85874;-83
2022/09/23 12:17:41;;;;;;;33.33;12.25;;;21.40;57.10;;;;;;4978059;28;89054;-83
2022/09/23 12:20:36;;;;;;;32.05;11.57;;;21.30;57.10;;;;;;4977998;28;85684;-83
2022/09/23 12:23:26;;;;;;;28.55;12.38;;;21.30;57.30;;;;;;4977662;28;85780;-84
2022/09/23 12:25:55;;;;;;;28.60;12.45;;;21.30;57.40;;;;;;4974112;28;86908;-83
2022/09/23 12:28:32;;;;;;;38.92;11.98;;;21.30;57.40;;;;;;4973606;28;89025;-83
2022/09/23 12:31:01;;;;;;;31.65;11.73;;;21.30;57.30;;;;;;4975619;28;86375;-83
2022/09/23 12:33:29;;;;;;;31.87;12.20;;;21.30;57.20;;;;;;4992226;28;87206;-83
2022/09/23 12:36:09;;;;;;;40.58;12.82;;;21.30;57.50;;;;;;4977579;28;87099;-83
2022/09/23 12:39:03;;;;;;;30.23;11.85;;;21.30;57.60;;;;;;4977236;28;88049;-83
2022/09/23 12:41:36;;;;;;;32.13;12.18;;;21.30;57.70;;;;;;4916358;28;86078;-83
2022/09/23 12:44:11;;;;;;;33.25;12.20;;;21.30;57.60;;;;;;4914793;28;86063;-83
2022/09/23 12:46:41;;;;;;;27.10;11.48;;;21.30;57.80;;;;;;4914663;28;87074;-83
2022/09/23 12:49:34;;;;;;;27.70;11.52;;;21.30;57.70;;;;;;4916252;28;87021;-83
2022/09/23 12:52:24;;;;;;;29.75;11.70;;;21.30;57.60;;;;;;4897677;28;90087;-83
2022/09/23 12:54:54;;;;;;;26.85;12.23;;;21.30;57.80;;;;;;4895973;28;88007;-83
2022/09/23 12:57:32;;;;;;;33.15;12.10;;;21.40;57.70;;;;;;4912066;28;87616;-83
2022/09/23 13:00:12;;;;;;;33.63;11.52;;;21.50;57.50;;;;;;4916681;28;86096;-83
2022/09/23 13:02:41;;;;;;;27.50;11.05;;;21.60;57.20;;;;;;4914302;28;86365;-82
2022/09/23 13:08:12;;;;;;;25.55;10.55;;;21.80;56.90;;;;;;4914640;28;86811;-82
2022/09/23 13:10:51;;;;;;;26.10;11.30;;;21.80;56.90;;;;;;4915217;28;86747;-83
2022/09/23 13:13:30;;;;;;;27.70;10.97;;;21.90;56.90;;;;;;4915211;28;86463;-83
2022/09/23 13:16:15;;;;;;;24.23;10.40;;;21.90;56.80;;;;;;4934985;28;88006;-83
2022/09/23 13:18:59;;;;;;;26.77;10.32;;;21.90;56.80;;;;;;4963477;28;89432;-83
2022/09/23 13:21:57;;;;;;;28.02;9.68;;;22.00;56.90;;;;;;4974721;28;88024;-83